Time;durP1;ratioP1;P1;durP2;ratioP2;P2;SDS_P1;SDS_P2;PMS_P1;PMS_P2;Temp;Humidity;BMP_temperature;BMP_pressure;BME280_temperature;BME280_humidity;BME280_pressure;Samples;Min_cycle;Max_cycle;Signal;HPM_P1;HPM_P2
2022/12/04 00:00:16;;;;;;;16.80;14.40;;;3.00;88.60;;;;;;5034765;28;20446;-77
2022/12/04 00:02:42;;;;;;;16.52;14.18;;;3.00;88.90;;;;;;5036665;28;20437;-76
2022/12/04 00:05:10;;;;;;;15.90;14.20;;;3.00;88.60;;;;;;5027605;28;20929;-77
2022/12/04 00:07:37;;;;;;;17.45;13.88;;;3.00;88.40;;;;;;5021748;28;20426;-77
2022/12/04 00:10:05;;;;;;;17.05;13.95;;;3.00;88.70;;;;;;5032861;28;20535;-76
2022/12/04 00:12:32;;;;;;;17.42;13.77;;;3.00;87.60;;;;;;5037187;28;20469;-77
2022/12/04 00:15:00;;;;;;;17.38;14.65;;;3.00;88.10;;;;;;5029960;28;20439;-76
2022/12/04 00:17:26;;;;;;;16.15;14.38;;;3.00;88.00;;;;;;5023644;28;20454;-77
2022/12/04 00:19:53;;;;;;;16.75;14.73;;;2.90;88.70;;;;;;5024809;28;20426;-76
2022/12/04 00:22:20;;;;;;;15.85;14.15;;;2.90;89.50;;;;;;5026202;28;20434;-77
2022/12/04 00:24:47;;;;;;;15.40;13.32;;;2.90;89.90;;;;;;5022555;28;20442;-76
2022/12/04 00:27:13;;;;;;;16.35;13.20;;;2.90;89.20;;;;;;5020460;28;20431;-77
2022/12/04 00:29:40;;;;;;;16.67;14.43;;;2.90;89.50;;;;;;5027355;28;20951;-78
2022/12/04 00:32:08;;;;;;;15.32;13.50;;;2.90;89.60;;;;;;5025967;28;20445;-76
2022/12/04 00:34:35;;;;;;;15.20;13.60;;;2.90;88.70;;;;;;5025012;28;20800;-76
2022/12/04 00:37:02;;;;;;;16.63;13.65;;;2.90;88.80;;;;;;5024833;28;20456;-76
2022/12/04 00:39:29;;;;;;;15.98;13.93;;;2.90;88.90;;;;;;5018596;28;20442;-77
2022/12/04 00:41:55;;;;;;;15.63;13.50;;;2.90;89.00;;;;;;5025343;28;20422;-75
2022/12/04 00:44:22;;;;;;;16.17;13.95;;;2.90;88.80;;;;;;5018605;28;20462;-78
2022/12/04 00:46:49;;;;;;;14.98;13.00;;;2.90;89.10;;;;;;5023358;28;20427;-76
2022/12/04 00:49:17;;;;;;;16.92;14.30;;;2.90;88.60;;;;;;5025605;28;20445;-75
2022/12/04 00:51:44;;;;;;;16.95;14.00;;;2.90;89.10;;;;;;5024853;28;20430;-77
2022/12/04 00:54:10;;;;;;;15.90;13.55;;;2.90;89.40;;;;;;5018252;28;20438;-77
2022/12/04 00:56:37;;;;;;;16.02;13.85;;;2.90;88.80;;;;;;5017114;28;21051;-77
2022/12/04 00:59:04;;;;;;;15.75;13.95;;;2.90;88.90;;;;;;5016647;28;20434;-77
2022/12/04 01:01:31;;;;;;;16.25;14.50;;;2.90;89.80;;;;;;5019974;28;20439;-77
2022/12/04 01:03:58;;;;;;;15.68;14.07;;;2.90;89.10;;;;;;5026356;28;20787;-78
2022/12/04 01:06:27;;;;;;;14.60;12.40;;;2.90;88.50;;;;;;5025113;28;20431;-78
2022/12/04 01:08:55;;;;;;;15.15;13.20;;;3.00;87.80;;;;;;5025845;28;20446;-78
2022/12/04 01:11:23;;;;;;;15.63;13.50;;;2.90;88.30;;;;;;5022517;28;20442;-79
2022/12/04 01:13:50;;;;;;;17.55;13.90;;;2.90;88.70;;;;;;5023918;28;20442;-78
2022/12/04 01:16:20;;;;;;;16.60;14.05;;;2.90;89.10;;;;;;5020839;28;20446;-78
2022/12/04 01:18:47;;;;;;;15.57;13.47;;;2.90;89.60;;;;;;5026145;28;20435;-78
2022/12/04 01:21:13;;;;;;;17.05;14.02;;;2.90;89.20;;;;;;5027960;28;20662;-78
2022/12/04 01:23:41;;;;;;;16.50;13.40;;;2.90;89.10;;;;;;5023506;28;20529;-74
2022/12/04 01:26:08;;;;;;;15.77;12.68;;;2.90;88.70;;;;;;5030685;28;20467;-75
2022/12/04 01:28:35;;;;;;;15.25;13.00;;;3.00;88.20;;;;;;5029280;28;20434;-76
2022/12/04 01:31:05;;;;;;;17.27;13.77;;;2.90;88.50;;;;;;5022427;28;20893;-77
2022/12/04 01:33:33;;;;;;;16.65;13.60;;;2.90;88.90;;;;;;5030402;28;20435;-77
2022/12/04 01:36:01;;;;;;;16.15;13.50;;;2.90;89.20;;;;;;5021959;28;20438;-77
2022/12/04 01:38:29;;;;;;;15.57;13.02;;;2.90;88.70;;;;;;5025389;28;20430;-77
2022/12/04 01:40:58;;;;;;;14.68;12.30;;;2.90;89.00;;;;;;5021823;28;20463;-78
2022/12/04 01:43:25;;;;;;;14.70;13.20;;;2.90;89.20;;;;;;5023554;28;20440;-77
2022/12/04 01:45:53;;;;;;;16.08;13.10;;;2.80;89.20;;;;;;5015176;28;20436;-76
2022/12/04 01:48:26;;;;;;;15.57;13.20;;;2.80;89.20;;;;;;5023279;28;21139;-77
2022/12/04 01:50:58;;;;;;;16.40;13.80;;;2.90;88.90;;;;;;5020198;28;20436;-76
2022/12/04 01:53:26;;;;;;;15.38;12.70;;;2.90;88.80;;;;;;5021834;28;20446;-77
2022/12/04 01:55:53;;;;;;;15.60;12.97;;;2.90;88.60;;;;;;5026264;28;20519;-77
2022/12/04 01:58:26;;;;;;;15.40;13.18;;;2.80;89.30;;;;;;5026575;28;20434;-76
2022/12/04 02:00:55;;;;;;;15.07;13.00;;;2.80;89.60;;;;;;5019490;28;20432;-77
2022/12/04 02:03:22;;;;;;;15.60;13.18;;;2.80;89.50;;;;;;5019074;28;20436;-76
2022/12/04 02:05:49;;;;;;;13.48;11.90;;;2.80;89.70;;;;;;5018322;28;20438;-75
2022/12/04 02:08:16;;;;;;;16.08;13.10;;;2.90;89.00;;;;;;5027919;28;20438;-75
2022/12/04 02:10:51;;;;;;;14.23;12.25;;;2.80;88.80;;;;;;5019058;28;20432;-77
2022/12/04 02:13:25;;;;;;;14.13;12.05;;;2.80;88.80;;;;;;5020228;28;20506;-78
2022/12/04 02:15:57;;;;;;;15.77;12.70;;;2.80;88.60;;;;;;5017971;28;20961;-78
2022/12/04 02:18:33;;;;;;;16.58;13.55;;;2.80;88.30;;;;;;5030607;28;20438;-77
2022/12/04 02:21:05;;;;;;;14.68;12.70;;;2.80;88.30;;;;;;5030092;28;20434;-78
2022/12/04 02:23:50;;;;;;;11.53;10.33;;;2.80;88.40;;;;;;5023288;28;20435;-77
2022/12/04 02:26:36;;;;;;;12.20;10.90;;;2.90;87.20;;;;;;5025883;28;20430;-77
2022/12/04 02:29:09;;;;;;;11.80;10.60;;;2.90;86.50;;;;;;5024939;28;20805;-77
2022/12/04 02:31:40;;;;;;;11.75;10.10;;;2.80;87.60;;;;;;5023061;28;20521;-77
2022/12/04 02:34:13;;;;;;;12.00;10.55;;;2.90;86.70;;;;;;5018594;28;20801;-77
2022/12/04 02:36:47;;;;;;;11.70;10.10;;;2.80;86.70;;;;;;5026189;28;20454;-77
2022/12/04 02:39:19;;;;;;;11.38;10.02;;;2.90;85.30;;;;;;5024118;28;20437;-75
2022/12/04 02:41:51;;;;;;;11.63;10.40;;;2.90;85.30;;;;;;5030030;28;20428;-76
2022/12/04 02:44:23;;;;;;;11.50;9.73;;;2.80;85.80;;;;;;5022321;28;20940;-76
2022/12/04 02:46:53;;;;;;;9.70;8.40;;;2.80;85.50;;;;;;5020466;28;20426;-75
2022/12/04 02:49:25;;;;;;;9.35;8.35;;;2.90;84.10;;;;;;5016246;28;20959;-76
2022/12/04 02:51:53;;;;;;;10.10;8.98;;;2.90;84.10;;;;;;5021295;28;20430;-75
2022/12/04 02:54:24;;;;;;;10.52;9.32;;;2.80;83.70;;;;;;5024438;28;20441;-76
2022/12/04 02:56:55;;;;;;;10.50;9.40;;;2.80;84.20;;;;;;5024536;28;20430;-76
2022/12/04 02:59:27;;;;;;;9.70;8.70;;;2.70;84.60;;;;;;5020381;28;20490;-75
2022/12/04 03:01:57;;;;;;;9.82;8.32;;;2.70;84.90;;;;;;5023871;28;20434;-75
2022/12/04 03:04:27;;;;;;;9.80;8.80;;;2.70;84.90;;;;;;5025009;28;20438;-75
2022/12/04 03:06:58;;;;;;;9.63;8.50;;;2.70;85.50;;;;;;5022467;28;21087;-75
2022/12/04 03:09:29;;;;;;;11.07;9.10;;;2.60;86.40;;;;;;5023723;28;20782;-77
2022/12/04 03:12:01;;;;;;;9.30;8.30;;;2.60;86.20;;;;;;5025762;28;20435;-76
2022/12/04 03:14:32;;;;;;;10.55;9.45;;;2.60;85.70;;;;;;5029814;28;20439;-76
2022/12/04 03:17:03;;;;;;;9.82;8.82;;;2.60;85.70;;;;;;5030601;28;20430;-76
2022/12/04 03:19:37;;;;;;;9.85;8.10;;;2.60;85.80;;;;;;5034392;28;20453;-76
2022/12/04 03:22:07;;;;;;;9.20;8.30;;;2.60;85.10;;;;;;5029104;28;20431;-79
2022/12/04 03:24:38;;;;;;;10.60;9.50;;;2.70;85.00;;;;;;5021384;28;20530;-76
2022/12/04 03:27:11;;;;;;;8.95;8.05;;;2.70;84.40;;;;;;5022278;28;20446;-76
2022/12/04 03:29:44;;;;;;;9.45;8.45;;;2.60;84.70;;;;;;5018119;28;20437;-76
2022/12/04 03:32:15;;;;;;;9.30;8.30;;;2.60;85.40;;;;;;5020844;28;20453;-76
2022/12/04 03:34:51;;;;;;;10.77;9.67;;;2.60;85.40;;;;;;5023096;28;20449;-76
2022/12/04 03:37:21;;;;;;;10.40;9.25;;;2.60;85.90;;;;;;5022822;28;20443;-77
2022/12/04 03:39:58;;;;;;;9.97;8.93;;;2.60;85.20;;;;;;5021136;28;20435;-77
2022/12/04 03:42:33;;;;;;;10.27;9.18;;;2.60;85.40;;;;;;5022575;28;20805;-76
2022/12/04 03:45:08;;;;;;;10.60;9.07;;;2.60;85.70;;;;;;5021025;28;20442;-77
2022/12/04 03:47:39;;;;;;;10.32;9.32;;;2.60;86.10;;;;;;5019879;28;20434;-77
2022/12/04 03:50:15;;;;;;;11.00;9.40;;;2.60;85.60;;;;;;5026549;28;20841;-77
2022/12/04 03:52:50;;;;;;;9.82;8.68;;;2.60;86.20;;;;;;5025000;28;20432;-76
2022/12/04 03:55:23;;;;;;;10.07;8.85;;;2.60;85.40;;;;;;5023189;28;20443;-76
2022/12/04 03:57:53;;;;;;;9.95;8.50;;;2.60;85.40;;;;;;5027158;28;20925;-77
2022/12/04 04:00:22;;;;;;;9.23;8.20;;;2.60;85.00;;;;;;5027207;28;20430;-77
2022/12/04 04:02:54;;;;;;;10.13;8.50;;;2.60;84.50;;;;;;5025697;28;20514;-77
2022/12/04 04:05:23;;;;;;;9.63;8.63;;;2.50;85.10;;;;;;5029565;28;20440;-76
2022/12/04 04:07:54;;;;;;;10.75;8.93;;;2.50;85.50;;;;;;5027763;28;20435;-78
2022/12/04 04:10:26;;;;;;;10.15;8.70;;;2.50;85.30;;;;;;5029627;28;20436;-77
2022/12/04 04:24:16;;;;;;;11.05;9.50;;;2.40;86.80;;;;;;5025213;28;20928;-76
2022/12/04 04:26:46;;;;;;;11.35;10.07;;;2.50;86.20;;;;;;5025552;28;20433;-78
2022/12/04 04:29:13;;;;;;;10.10;9.10;;;2.40;87.00;;;;;;5021108;28;20439;-77
2022/12/04 04:31:45;;;;;;;11.40;10.15;;;2.40;86.80;;;;;;5023644;28;20522;-76
2022/12/04 04:34:19;;;;;;;10.77;9.40;;;2.40;86.60;;;;;;5016864;28;20440;-77
2022/12/04 04:36:54;;;;;;;10.50;9.02;;;2.50;86.20;;;;;;5026453;28;20517;-77
2022/12/04 04:39:28;;;;;;;10.98;9.77;;;2.50;86.10;;;;;;5024452;28;20445;-76
2022/12/04 04:42:02;;;;;;;10.82;9.70;;;2.50;85.60;;;;;;5025118;28;20536;-78
2022/12/04 04:44:37;;;;;;;10.68;9.40;;;2.50;86.20;;;;;;5029902;28;20507;-76
2022/12/04 04:47:11;;;;;;;11.07;9.75;;;2.40;86.00;;;;;;5027003;28;20536;-77
2022/12/04 04:49:40;;;;;;;11.85;10.07;;;2.40;86.70;;;;;;5025737;28;20485;-76
2022/12/04 04:52:07;;;;;;;11.90;9.90;;;2.40;86.60;;;;;;5026449;28;20439;-75
2022/12/04 04:54:35;;;;;;;12.13;9.57;;;2.30;86.60;;;;;;5021833;28;20438;-77
2022/12/04 04:57:02;;;;;;;10.15;9.05;;;2.30;87.40;;;;;;5020580;28;20431;-76
2022/12/04 04:59:29;;;;;;;11.90;10.18;;;2.30;87.20;;;;;;5023579;28;20449;-79
2022/12/04 05:01:57;;;;;;;10.70;9.60;;;2.30;87.60;;;;;;5024388;28;20434;-79
2022/12/04 05:04:25;;;;;;;11.33;10.13;;;2.30;88.20;;;;;;5028045;28;20430;-79
2022/12/04 05:06:51;;;;;;;10.00;8.90;;;2.30;88.60;;;;;;5020634;28;20439;-78
2022/12/04 05:09:18;;;;;;;10.23;9.23;;;2.30;87.80;;;;;;5021858;28;20434;-78
2022/12/04 05:11:45;;;;;;;10.07;9.07;;;2.40;86.30;;;;;;5023986;28;20439;-78
2022/12/04 05:14:12;;;;;;;11.25;10.05;;;2.40;86.50;;;;;;5022575;28;20446;-76
2022/12/04 05:16:39;;;;;;;10.97;9.60;;;2.40;86.70;;;;;;5017534;28;20433;-77
2022/12/04 05:21:51;;;;;;;10.70;9.60;;;2.30;87.50;;;;;;5026756;28;20426;-74
2022/12/04 05:24:18;;;;;;;10.43;9.32;;;2.30;87.70;;;;;;5017585;28;20434;-78
2022/12/04 05:26:45;;;;;;;10.20;8.90;;;2.30;88.00;;;;;;5030484;28;20445;-76
2022/12/04 05:29:12;;;;;;;10.55;9.45;;;2.30;87.70;;;;;;5025719;28;20445;-77
2022/12/04 05:31:38;;;;;;;10.43;9.32;;;2.30;87.50;;;;;;5026829;28;20497;-77
2022/12/04 05:34:05;;;;;;;10.20;9.10;;;2.30;87.60;;;;;;5030413;28;21028;-77
2022/12/04 05:36:32;;;;;;;10.80;8.93;;;2.30;87.20;;;;;;5027861;28;20450;-78
2022/12/04 05:39:00;;;;;;;10.15;9.05;;;2.30;87.30;;;;;;5026349;28;20442;-77
2022/12/04 05:41:27;;;;;;;10.05;8.98;;;2.30;87.30;;;;;;5030945;28;20438;-77
2022/12/04 05:43:53;;;;;;;10.00;9.00;;;2.30;86.90;;;;;;5029899;28;20782;-77
2022/12/04 05:46:20;;;;;;;9.70;8.65;;;2.30;87.10;;;;;;5017106;28;22233;-78
2022/12/04 05:48:47;;;;;;;9.60;8.60;;;2.30;87.20;;;;;;5021184;28;20488;-78
2022/12/04 05:51:14;;;;;;;9.82;8.80;;;2.20;86.80;;;;;;5029374;28;20438;-77
2022/12/04 05:53:40;;;;;;;9.15;8.25;;;2.20;86.90;;;;;;5027144;28;20430;-77
2022/12/04 05:56:10;;;;;;;9.75;8.05;;;2.30;87.10;;;;;;5042247;22;20921;-75
2022/12/04 05:58:38;;;;;;;9.25;8.25;;;2.30;86.20;;;;;;5015305;28;20530;-74
2022/12/04 06:01:10;;;;;;;8.65;7.75;;;2.30;85.80;;;;;;5022123;28;20435;-75
2022/12/04 06:03:36;;;;;;;8.93;8.02;;;2.30;85.80;;;;;;5020658;28;21204;-75
2022/12/04 06:06:04;;;;;;;8.80;7.90;;;2.20;85.70;;;;;;5014227;28;20459;-74
2022/12/04 06:08:31;;;;;;;8.20;7.40;;;2.20;86.50;;;;;;4996476;28;20473;-74
2022/12/04 06:10:57;;;;;;;8.60;7.70;;;2.20;86.60;;;;;;4997187;28;20875;-73
2022/12/04 06:13:25;;;;;;;8.17;7.33;;;2.20;86.50;;;;;;4997385;28;20633;-75
2022/12/04 06:15:53;;;;;;;9.10;8.20;;;2.20;86.90;;;;;;4999940;28;20447;-75
2022/12/04 06:18:19;;;;;;;9.10;8.20;;;2.20;85.70;;;;;;5000786;28;20818;-75
2022/12/04 06:20:46;;;;;;;8.65;7.70;;;2.20;85.30;;;;;;5003753;28;20943;-75
2022/12/04 06:23:13;;;;;;;8.63;7.80;;;2.20;85.50;;;;;;5005075;28;20903;-75
2022/12/04 06:25:39;;;;;;;9.70;8.70;;;2.10;85.80;;;;;;5003038;28;21057;-75
2022/12/04 06:28:07;;;;;;;9.32;8.32;;;2.10;86.70;;;;;;5001869;28;20493;-75
2022/12/04 06:30:36;;;;;;;9.23;8.32;;;2.10;86.70;;;;;;5001861;28;20440;-75
2022/12/04 06:33:02;;;;;;;8.60;7.80;;;2.10;86.40;;;;;;5005129;28;20448;-73
2022/12/04 06:35:29;;;;;;;8.75;7.85;;;2.10;86.30;;;;;;5003810;28;20445;-74
2022/12/04 06:37:56;;;;;;;8.80;7.90;;;2.00;85.90;;;;;;4999737;28;20436;-74
2022/12/04 06:40:23;;;;;;;9.50;8.50;;;2.00;85.70;;;;;;5003762;28;20444;-74
2022/12/04 06:42:50;;;;;;;9.45;8.55;;;1.90;86.60;;;;;;5001948;28;20442;-75
2022/12/04 06:45:16;;;;;;;8.57;7.77;;;1.90;87.20;;;;;;5002932;28;20518;-74
2022/12/04 06:47:44;;;;;;;9.50;8.50;;;1.90;87.50;;;;;;5004194;28;20870;-75
2022/12/04 06:50:12;;;;;;;8.70;7.80;;;2.00;87.40;;;;;;5000676;28;20447;-74
2022/12/04 06:52:39;;;;;;;9.32;8.30;;;2.00;87.60;;;;;;5003033;28;20452;-74
2022/12/04 06:55:07;;;;;;;9.00;8.10;;;2.00;87.70;;;;;;5001794;28;20440;-74
2022/12/04 06:57:33;;;;;;;9.40;8.50;;;2.00;87.10;;;;;;5000286;28;20491;-74
2022/12/04 07:00:00;;;;;;;8.65;7.85;;;2.00;86.60;;;;;;5000792;28;20440;-75
2022/12/04 07:02:27;;;;;;;9.00;8.10;;;2.00;86.70;;;;;;5004225;28;20433;-76
2022/12/04 07:04:56;;;;;;;8.40;7.60;;;2.00;86.80;;;;;;5003804;28;20942;-74
2022/12/04 07:07:23;;;;;;;9.23;8.27;;;2.00;86.00;;;;;;4996733;28;20438;-74
2022/12/04 07:09:49;;;;;;;9.83;8.93;;;1.90;86.80;;;;;;5004339;28;20436;-74
2022/12/04 07:12:16;;;;;;;9.48;8.50;;;1.90;86.60;;;;;;5004995;28;20619;-74
2022/12/04 07:14:43;;;;;;;9.02;8.13;;;1.90;87.30;;;;;;5006752;28;20519;-74
2022/12/04 07:17:10;;;;;;;9.20;8.30;;;1.90;87.50;;;;;;5002958;28;20524;-74
2022/12/04 07:19:37;;;;;;;9.68;8.68;;;1.90;87.20;;;;;;5004728;28;20782;-74
2022/12/04 07:22:07;;;;;;;8.80;7.90;;;1.80;87.10;;;;;;5002207;28;20778;-77
2022/12/04 07:24:36;;;;;;;9.48;8.48;;;1.80;87.00;;;;;;5001404;28;20854;-76
2022/12/04 07:27:03;;;;;;;9.25;8.35;;;1.70;87.50;;;;;;5003115;28;20525;-75
2022/12/04 07:29:30;;;;;;;8.43;7.60;;;1.80;88.20;;;;;;5005783;28;20429;-75
2022/12/04 07:31:57;;;;;;;9.80;8.80;;;1.70;88.50;;;;;;4994926;28;20829;-76
2022/12/04 07:34:23;;;;;;;8.90;8.02;;;1.80;87.50;;;;;;5000537;28;20442;-75
2022/12/04 07:36:50;;;;;;;8.82;8.02;;;1.80;87.20;;;;;;4999998;28;20484;-75
2022/12/04 07:39:18;;;;;;;9.57;8.67;;;1.70;87.50;;;;;;5002885;28;20525;-75
2022/12/04 07:41:45;;;;;;;8.50;7.70;;;1.70;87.90;;;;;;5000211;28;20540;-74
2022/12/04 07:44:12;;;;;;;9.40;8.50;;;1.70;88.00;;;;;;4999808;28;20462;-74
2022/12/04 07:46:38;;;;;;;9.38;8.48;;;1.70;88.10;;;;;;5001689;28;20462;-76
2022/12/04 07:49:05;;;;;;;9.55;8.65;;;1.70;88.20;;;;;;4997656;28;20436;-75
2022/12/04 07:51:32;;;;;;;9.68;8.68;;;1.70;88.40;;;;;;4995816;28;22484;-75
2022/12/04 07:53:59;;;;;;;9.65;8.65;;;1.70;88.50;;;;;;4995661;28;20443;-74
2022/12/04 07:56:27;;;;;;;9.93;8.93;;;1.60;89.20;;;;;;4998696;28;21037;-72
2022/12/04 07:58:54;;;;;;;10.15;9.15;;;1.70;89.20;;;;;;5002726;28;20444;-72
2022/12/04 08:01:22;;;;;;;9.20;8.30;;;1.70;89.10;;;;;;4998166;28;20445;-72
2022/12/04 08:03:51;;;;;;;9.80;8.85;;;1.70;89.30;;;;;;5001447;28;20943;-74
2022/12/04 08:06:20;;;;;;;9.90;8.90;;;1.70;88.70;;;;;;4995057;28;20436;-75
2022/12/04 08:08:47;;;;;;;10.67;9.30;;;1.80;89.00;;;;;;5002202;28;20440;-75
2022/12/04 08:11:17;;;;;;;9.80;8.80;;;1.80;89.80;;;;;;5002019;28;20444;-77
2022/12/04 08:13:45;;;;;;;10.40;9.40;;;1.80;88.50;;;;;;5004037;28;20420;-77
2022/12/04 08:16:13;;;;;;;10.55;9.50;;;1.80;88.50;;;;;;5002676;28;20447;-75
2022/12/04 08:18:40;;;;;;;10.10;9.20;;;1.90;88.40;;;;;;5003092;28;20444;-75
2022/12/04 08:21:11;;;;;;;10.88;9.77;;;1.80;88.40;;;;;;4994803;28;20455;-76
2022/12/04 08:23:39;;;;;;;9.57;8.57;;;1.80;88.30;;;;;;5009366;28;20437;-76
2022/12/04 08:26:07;;;;;;;9.45;8.45;;;1.80;88.60;;;;;;5019987;28;20519;-77
2022/12/04 08:28:34;;;;;;;9.90;8.90;;;1.90;88.00;;;;;;5025301;28;20444;-77
2022/12/04 08:31:05;;;;;;;10.13;9.10;;;1.90;87.60;;;;;;5022173;28;20408;-77
2022/12/04 08:33:32;;;;;;;11.15;9.82;;;1.80;88.50;;;;;;5014171;28;20440;-78
2022/12/04 08:35:59;;;;;;;9.75;8.75;;;1.80;88.90;;;;;;5012280;28;20434;-77
2022/12/04 08:38:26;;;;;;;10.77;9.70;;;1.80;89.10;;;;;;5004617;28;20883;-77
2022/12/04 08:40:53;;;;;;;9.93;8.93;;;1.80;89.10;;;;;;5002131;28;20436;-77
2022/12/04 08:43:20;;;;;;;11.18;9.80;;;1.80;89.50;;;;;;5002830;28;20429;-77
2022/12/04 08:45:55;;;;;;;10.30;8.80;;;1.80;88.70;;;;;;5008264;28;20436;-77
2022/12/04 08:48:23;;;;;;;10.60;9.57;;;1.70;88.30;;;;;;5004173;28;20776;-76
2022/12/04 08:50:50;;;;;;;11.13;10.00;;;1.70;88.50;;;;;;4996213;28;20524;-76
2022/12/04 08:53:17;;;;;;;11.48;10.27;;;1.70;89.10;;;;;;5001000;28;20530;-75
2022/12/04 08:55:44;;;;;;;10.13;8.88;;;1.70;89.70;;;;;;5001107;28;20868;-76
2022/12/04 08:58:11;;;;;;;10.82;9.73;;;1.70;89.30;;;;;;5002681;28;20460;-76
2022/12/04 09:00:38;;;;;;;9.75;8.75;;;1.70;89.30;;;;;;5002203;28;20433;-76
2022/12/04 09:03:05;;;;;;;10.60;9.60;;;1.70;89.20;;;;;;5009136;28;20440;-76
2022/12/04 09:05:33;;;;;;;11.30;10.20;;;1.70;89.30;;;;;;5006039;28;20921;-76
2022/12/04 09:08:00;;;;;;;11.20;10.10;;;1.70;89.90;;;;;;5000431;28;20438;-76
2022/12/04 09:10:27;;;;;;;11.75;10.55;;;1.70;90.40;;;;;;5000651;28;20428;-72
2022/12/04 09:12:54;;;;;;;11.00;9.90;;;1.80;90.80;;;;;;5001728;28;20455;-76
2022/12/04 09:15:20;;;;;;;9.60;8.60;;;1.80;90.80;;;;;;5000772;28;20893;-76
2022/12/04 09:17:47;;;;;;;11.00;9.90;;;1.90;89.90;;;;;;4999543;28;20572;-76
2022/12/04 09:20:15;;;;;;;11.10;10.00;;;2.00;88.30;;;;;;5004223;28;20429;-78
2022/12/04 09:22:44;;;;;;;11.67;10.43;;;2.00;88.30;;;;;;5004420;28;20923;-78
2022/12/04 09:25:11;;;;;;;10.80;9.70;;;1.90;88.30;;;;;;5005687;28;20477;-79
2022/12/04 09:27:40;;;;;;;10.55;9.45;;;1.90;88.60;;;;;;5007982;28;20474;-77
2022/12/04 09:30:08;;;;;;;11.20;10.10;;;1.90;88.80;;;;;;5009027;28;20439;-77
2022/12/04 09:32:35;;;;;;;11.75;10.55;;;1.90;89.00;;;;;;5001098;28;20779;-79
2022/12/04 09:35:02;;;;;;;10.20;9.10;;;1.90;89.90;;;;;;5004489;28;20891;-76
2022/12/04 09:37:29;;;;;;;11.15;9.95;;;1.90;90.30;;;;;;5002432;28;20540;-77
2022/12/04 09:39:58;;;;;;;11.25;10.13;;;1.90;89.70;;;;;;5007535;28;20561;-79
2022/12/04 09:42:35;;;;;;;10.30;9.30;;;2.00;89.90;;;;;;5006273;28;20436;-75
2022/12/04 09:45:08;;;;;;;11.02;9.70;;;2.00;88.60;;;;;;5001621;28;20425;-80
2022/12/04 09:47:42;;;;;;;10.80;9.80;;;2.00;89.70;;;;;;5005288;28;21159;-79
2022/12/04 09:50:14;;;;;;;10.52;9.43;;;2.00;89.30;;;;;;5005402;28;20438;-78
2022/12/04 09:52:50;;;;;;;11.10;10.00;;;2.00;88.90;;;;;;5005123;28;20875;-78
2022/12/04 09:55:23;;;;;;;11.00;9.80;;;2.00;89.20;;;;;;5006544;28;20432;-77
2022/12/04 09:57:54;;;;;;;10.73;9.63;;;2.10;89.10;;;;;;5000302;28;20526;-74
2022/12/04 10:00:21;;;;;;;10.98;9.88;;;2.10;88.60;;;;;;5001773;28;20428;-76
2022/12/04 10:02:52;;;;;;;12.13;10.93;;;2.00;89.50;;;;;;4998731;28;20436;-73
2022/12/04 10:05:24;;;;;;;10.60;9.50;;;2.00;89.70;;;;;;4999868;28;20515;-72
2022/12/04 10:08:01;;;;;;;11.15;10.05;;;2.00;90.10;;;;;;4997762;28;20444;-75
2022/12/04 10:10:37;;;;;;;11.85;10.65;;;2.00;90.20;;;;;;4996376;28;20466;-73
2022/12/04 10:13:19;;;;;;;11.60;10.40;;;2.10;90.10;;;;;;5002325;28;20432;-75
2022/12/04 10:15:51;;;;;;;11.77;10.55;;;2.10;89.90;;;;;;5013674;28;20436;-73
2022/12/04 10:18:36;;;;;;;11.68;10.48;;;2.10;90.00;;;;;;5006312;28;20887;-74
2022/12/04 10:21:20;;;;;;;11.52;10.35;;;2.10;90.00;;;;;;5006970;28;20448;-75
2022/12/04 10:23:59;;;;;;;12.05;10.85;;;2.10;89.90;;;;;;5004419;28;20452;-76
2022/12/04 10:26:36;;;;;;;12.07;10.88;;;2.10;89.80;;;;;;4999157;28;20519;-77
2022/12/04 10:29:06;;;;;;;13.18;11.88;;;2.10;90.20;;;;;;5006031;28;20447;-74
2022/12/04 10:31:36;;;;;;;12.95;11.48;;;2.20;90.10;;;;;;5001630;28;20529;-74
2022/12/04 10:34:07;;;;;;;11.48;10.38;;;2.20;90.00;;;;;;5002714;28;20782;-74
2022/12/04 10:36:35;;;;;;;11.30;10.10;;;2.30;89.20;;;;;;5004993;28;20491;-76
2022/12/04 10:39:06;;;;;;;10.65;9.65;;;2.20;89.20;;;;;;5003328;28;20446;-74
2022/12/04 10:41:40;;;;;;;10.90;9.85;;;2.20;88.70;;;;;;5004033;28;20436;-73
2022/12/04 10:44:14;;;;;;;11.60;10.40;;;2.20;89.20;;;;;;5003823;28;20420;-74
2022/12/04 10:46:41;;;;;;;12.40;10.95;;;2.20;89.50;;;;;;5002832;28;21239;-66
2022/12/04 10:49:19;;;;;;;12.15;10.85;;;2.20;89.70;;;;;;4997095;28;20447;-76
2022/12/04 10:51:47;;;;;;;12.30;11.10;;;2.20;89.40;;;;;;4999952;28;20437;-75
2022/12/04 10:54:22;;;;;;;11.88;10.68;;;2.20;89.60;;;;;;4994280;28;20436;-75
2022/12/04 10:56:55;;;;;;;11.80;10.60;;;2.30;89.80;;;;;;4998193;28;20543;-74
2022/12/04 10:59:22;;;;;;;11.55;10.35;;;2.30;90.00;;;;;;5001506;28;20439;-74
2022/12/04 11:01:50;;;;;;;12.10;10.80;;;2.30;90.10;;;;;;5001590;28;20456;-74
2022/12/04 11:04:22;;;;;;;11.10;10.00;;;2.30;90.20;;;;;;5000216;28;20860;-74
2022/12/04 11:06:49;;;;;;;10.63;9.60;;;2.40;90.00;;;;;;4997076;28;20445;-74
2022/12/04 11:09:22;;;;;;;11.48;10.20;;;2.50;89.40;;;;;;5002313;28;20490;-73
2022/12/04 11:11:49;;;;;;;11.75;10.65;;;2.50;88.90;;;;;;5004025;28;20440;-73
2022/12/04 11:14:20;;;;;;;10.90;9.80;;;2.50;88.50;;;;;;5005258;28;20966;-73
2022/12/04 11:16:48;;;;;;;11.00;9.90;;;2.50;88.60;;;;;;5004693;28;20448;-74
2022/12/04 11:19:21;;;;;;;12.00;10.80;;;2.60;88.50;;;;;;4997186;28;21014;-74
2022/12/04 11:21:48;;;;;;;10.90;9.80;;;2.60;88.20;;;;;;5002589;28;20447;-73
2022/12/04 11:24:23;;;;;;;11.45;10.30;;;2.60;88.00;;;;;;5004283;28;20436;-74
2022/12/04 11:26:51;;;;;;;12.02;10.80;;;2.60;88.50;;;;;;5001417;28;20468;-74
2022/12/04 11:29:26;;;;;;;11.30;10.20;;;2.60;88.90;;;;;;5005513;28;20420;-74
2022/12/04 11:31:55;;;;;;;11.45;10.35;;;2.60;89.20;;;;;;5002056;28;20436;-74
2022/12/04 11:34:27;;;;;;;10.98;9.88;;;2.60;88.50;;;;;;5006288;28;20492;-74
2022/12/04 11:36:56;;;;;;;9.98;9.07;;;2.60;88.30;;;;;;5004884;28;20459;-74
2022/12/04 11:39:31;;;;;;;11.05;9.95;;;2.60;88.50;;;;;;5010837;28;20433;-74
2022/12/04 11:42:03;;;;;;;11.70;10.50;;;2.50;88.40;;;;;;5013101;28;20433;-74
2022/12/04 11:44:33;;;;;;;11.20;10.00;;;2.50;88.60;;;;;;5010284;28;20428;-74
2022/12/04 11:47:01;;;;;;;10.70;9.60;;;2.50;88.60;;;;;;5009786;28;20447;-74
2022/12/04 11:49:31;;;;;;;10.57;9.48;;;2.60;89.00;;;;;;5009260;28;20523;-74
2022/12/04 11:52:14;;;;;;;11.25;10.05;;;2.60;89.00;;;;;;5010475;28;20436;-74
2022/12/04 11:54:56;;;;;;;11.63;10.50;;;2.60;89.00;;;;;;5013353;28;20573;-74
2022/12/04 11:57:29;;;;;;;10.47;9.40;;;2.60;88.90;;;;;;5012647;28;20432;-74
2022/12/04 12:00:12;;;;;;;10.30;9.20;;;2.70;88.30;;;;;;5013487;28;20440;-73
2022/12/04 12:03:06;;;;;;;11.00;9.90;;;2.60;87.90;;;;;;5003868;28;20537;-73
2022/12/04 12:06:07;;;;;;;11.23;10.02;;;2.70;88.40;;;;;;4998248;28;20428;-74
2022/12/04 12:08:48;;;;;;;9.73;8.73;;;2.70;88.20;;;;;;5003500;28;20440;-74
2022/12/04 12:11:23;;;;;;;11.40;10.30;;;2.70;88.60;;;;;;5000186;28;20444;-74
2022/12/04 12:14:01;;;;;;;11.50;10.40;;;2.70;88.40;;;;;;5004202;28;20455;-73
2022/12/04 12:16:39;;;;;;;11.30;10.13;;;2.60;89.30;;;;;;5008595;28;20621;-74
2022/12/04 12:19:20;;;;;;;11.60;10.40;;;2.60;89.50;;;;;;5006710;28;20447;-74
2022/12/04 12:21:59;;;;;;;11.10;9.80;;;2.70;89.30;;;;;;5001916;28;20430;-74
2022/12/04 12:24:29;;;;;;;11.32;10.10;;;2.70;89.20;;;;;;5006185;28;20440;-74
2022/12/04 12:27:07;;;;;;;10.98;9.88;;;2.70;89.10;;;;;;5031161;22;20945;-76
2022/12/04 12:29:50;;;;;;;11.73;10.53;;;2.70;88.90;;;;;;5029934;28;20512;-75
2022/12/04 12:32:36;;;;;;;11.77;10.50;;;2.70;89.20;;;;;;5023794;28;20808;-74
2022/12/04 12:35:05;;;;;;;11.95;10.85;;;2.70;89.20;;;;;;5019680;28;20922;-75
2022/12/04 12:37:39;;;;;;;11.63;10.25;;;2.70;89.10;;;;;;5022732;28;20435;-75
2022/12/04 12:40:15;;;;;;;10.80;9.70;;;2.70;89.80;;;;;;5024459;28;21226;-75
2022/12/04 12:42:49;;;;;;;11.60;10.10;;;2.70;88.90;;;;;;5024300;28;21091;-75
2022/12/04 12:45:23;;;;;;;11.18;10.15;;;2.70;88.80;;;;;;5022429;28;20457;-75
2022/12/04 12:47:55;;;;;;;11.23;10.07;;;2.70;89.10;;;;;;5028412;28;20425;-74
2022/12/04 12:50:28;;;;;;;12.15;10.95;;;2.70;89.10;;;;;;5023837;28;20441;-75
2022/12/04 12:52:58;;;;;;;11.38;10.20;;;2.70;89.50;;;;;;5029072;28;20423;-74
2022/12/04 12:55:30;;;;;;;11.60;10.40;;;2.80;89.60;;;;;;5029664;28;20439;-74
2022/12/04 12:58:04;;;;;;;11.88;10.63;;;2.80;89.60;;;;;;5026837;28;20983;-76
2022/12/04 13:00:37;;;;;;;11.30;10.10;;;2.80;89.50;;;;;;5026764;28;20418;-75
2022/12/04 13:03:17;;;;;;;11.00;9.90;;;2.80;89.60;;;;;;5029769;28;20426;-73
2022/12/04 13:05:48;;;;;;;11.90;10.70;;;2.80;89.60;;;;;;5027740;28;20510;-75
2022/12/04 13:08:21;;;;;;;12.13;10.93;;;2.80;89.60;;;;;;5026920;28;20441;-73
2022/12/04 13:10:56;;;;;;;12.67;11.37;;;2.80;89.50;;;;;;5028654;28;21014;-73
2022/12/04 13:13:26;;;;;;;11.40;10.30;;;2.80;89.70;;;;;;5029090;28;20441;-75